sensor_id;sensor_type;location;lat;lon;timestamp;pressure;altitude;pressure_sealevel;temperature;humidity
27014;BME280;14556;52.222;4.510;2022-12-18T00:01:14;102636.78;;;-4.67;100.00
27014;BME280;14556;52.222;4.510;2022-12-18T00:03:41;102616.88;;;-4.70;100.00
27014;BME280;14556;52.222;4.510;2022-12-18T00:06:09;102616.25;;;-4.53;100.00
27014;BME280;14556;52.222;4.510;2022-12-18T00:08:35;102628.81;;;-4.63;100.00
27014;BME280;14556;52.222;4.510;2022-12-18T00:11:07;102633.03;;;-4.60;100.00
27014;BME280;14556;52.222;4.510;2022-12-18T00:13:34;102626.25;;;-4.64;100.00
27014;BME280;14556;52.222;4.510;2022-12-18T00:16:03;102612.31;;;-4.65;100.00
27014;BME280;14556;52.222;4.510;2022-12-18T00:18:30;102610.66;;;-4.67;100.00
27014;BME280;14556;52.222;4.510;2022-12-18T00:21:02;102616.69;;;-4.65;100.00
27014;BME280;14556;52.222;4.510;2022-12-18T00:23:30;102616.75;;;-4.67;100.00
27014;BME280;14556;52.222;4.510;2022-12-18T00:26:01;102617.22;;;-4.55;100.00
27014;BME280;14556;52.222;4.510;2022-12-18T00:28:28;102613.00;;;-4.59;100.00
27014;BME280;14556;52.222;4.510;2022-12-18T00:31:03;102600.13;;;-4.64;100.00
27014;BME280;14556;52.222;4.510;2022-12-18T00:33:30;102615.69;;;-4.61;100.00
27014;BME280;14556;52.222;4.510;2022-12-18T00:36:04;102632.31;;;-4.64;100.00
27014;BME280;14556;52.222;4.510;2022-12-18T00:38:31;102618.72;;;-4.74;100.00
27014;BME280;14556;52.222;4.510;2022-12-18T00:40:58;102611.69;;;-4.71;100.00
27014;BME280;14556;52.222;4.510;2022-12-18T00:43:25;102598.75;;;-4.75;100.00
27014;BME280;14556;52.222;4.510;2022-12-18T00:45:51;102615.38;;;-4.77;100.00
27014;BME280;14556;52.222;4.510;2022-12-18T00:48:18;102614.38;;;-4.73;100.00
27014;BME280;14556;52.222;4.510;2022-12-18T00:50:44;102621.97;;;-4.67;100.00
27014;BME280;14556;52.222;4.510;2022-12-18T00:53:11;102622.94;;;-4.69;100.00
27014;BME280;14556;52.222;4.510;2022-12-18T00:55:42;102626.63;;;-4.75;100.00
27014;BME280;14556;52.222;4.510;2022-12-18T00:58:10;102622.72;;;-4.89;100.00
27014;BME280;14556;52.222;4.510;2022-12-18T01:00:37;102627.69;;;-4.81;100.00
27014;BME280;14556;52.222;4.510;2022-12-18T01:03:04;102620.06;;;-4.87;100.00
27014;BME280;14556;52.222;4.510;2022-12-18T01:05:32;102621.34;;;-4.74;100.00
27014;BME280;14556;52.222;4.510;2022-12-18T01:07:58;102635.31;;;-4.75;100.00
27014;BME280;14556;52.222;4.510;2022-12-18T01:10:25;102625.56;;;-4.69;100.00
27014;BME280;14556;52.222;4.510;2022-12-18T01:12:51;102627.69;;;-4.81;100.00
27014;BME280;14556;52.222;4.510;2022-12-18T01:15:18;102620.16;;;-4.90;100.00
27014;BME280;14556;52.222;4.510;2022-12-18T01:17:45;102622.50;;;-4.82;100.00
27014;BME280;14556;52.222;4.510;2022-12-18T01:20:12;102620.16;;;-4.90;100.00
27014;BME280;14556;52.222;4.510;2022-12-18T01:22:38;102618.63;;;-4.96;100.00
27014;BME280;14556;52.222;4.510;2022-12-18T01:25:05;102619.31;;;-4.91;100.00
27014;BME280;14556;52.222;4.510;2022-12-18T01:27:33;102626.22;;;-4.90;100.00
27014;BME280;14556;52.222;4.510;2022-12-18T01:30:00;102628.91;;;-4.91;100.00
27014;BME280;14556;52.222;4.510;2022-12-18T01:32:29;102626.41;;;-4.94;100.00
27014;BME280;14556;52.222;4.510;2022-12-18T01:34:56;102625.75;;;-5.01;100.00
27014;BME280;14556;52.222;4.510;2022-12-18T01:37:23;102627.38;;;-4.99;100.00
27014;BME280;14556;52.222;4.510;2022-12-18T01:39:49;102633.59;;;-5.01;100.00
27014;BME280;14556;52.222;4.510;2022-12-18T01:42:16;102632.84;;;-5.05;100.00
27014;BME280;14556;52.222;4.510;2022-12-18T01:45:05;102638.59;;;-4.95;100.00
27014;BME280;14556;52.222;4.510;2022-12-18T01:50:37;102647.47;;;-5.01;100.00
27014;BME280;14556;52.222;4.510;2022-12-18T01:53:17;102647.53;;;-5.02;100.00
27014;BME280;14556;52.222;4.510;2022-12-18T01:55:50;102648.44;;;-5.03;100.00
27014;BME280;14556;52.222;4.510;2022-12-18T01:58:20;102644.13;;;-5.04;100.00
27014;BME280;14556;52.222;4.510;2022-12-18T02:00:48;102651.00;;;-5.02;100.00
27014;BME280;14556;52.222;4.510;2022-12-18T02:03:15;102647.91;;;-5.13;100.00
27014;BME280;14556;52.222;4.510;2022-12-18T02:05:46;102666.75;;;-5.05;100.00
27014;BME280;14556;52.222;4.510;2022-12-18T02:08:46;102671.34;;;-5.12;100.00
27014;BME280;14556;52.222;4.510;2022-12-18T02:11:27;102675.09;;;-5.20;100.00
27014;BME280;14556;52.222;4.510;2022-12-18T02:14:01;102665.81;;;-5.29;100.00
27014;BME280;14556;52.222;4.510;2022-12-18T02:16:39;102665.00;;;-5.31;100.00
27014;BME280;14556;52.222;4.510;2022-12-18T02:22:24;102656.78;;;-5.19;100.00
27014;BME280;14556;52.222;4.510;2022-12-18T02:27:52;102647.78;;;-5.37;100.00
27014;BME280;14556;52.222;4.510;2022-12-18T02:30:21;102659.19;;;-5.40;100.00
27014;BME280;14556;52.222;4.510;2022-12-18T02:32:50;102645.22;;;-5.39;100.00
27014;BME280;14556;52.222;4.510;2022-12-18T02:35:29;102646.34;;;-5.48;100.00
27014;BME280;14556;52.222;4.510;2022-12-18T02:37:56;102634.34;;;-5.52;100.00
27014;BME280;14556;52.222;4.510;2022-12-18T02:40:26;102641.16;;;-5.48;100.00
27014;BME280;14556;52.222;4.510;2022-12-18T02:42:54;102636.69;;;-5.44;100.00
27014;BME280;14556;52.222;4.510;2022-12-18T02:45:20;102625.31;;;-5.41;100.00
27014;BME280;14556;52.222;4.510;2022-12-18T02:47:49;102621.09;;;-5.46;100.00
27014;BME280;14556;52.222;4.510;2022-12-18T02:58:40;102620.09;;;-5.41;100.00
27014;BME280;14556;52.222;4.510;2022-12-18T03:01:20;102614.25;;;-5.50;100.00
27014;BME280;14556;52.222;4.510;2022-12-18T03:03:55;102617.94;;;-5.55;100.00
27014;BME280;14556;52.222;4.510;2022-12-18T03:06:37;102611.69;;;-5.51;100.00
27014;BME280;14556;52.222;4.510;2022-12-18T03:09:15;102612.75;;;-5.57;100.00
27014;BME280;14556;52.222;4.510;2022-12-18T03:11:49;102610.81;;;-5.50;100.00
27014;BME280;14556;52.222;4.510;2022-12-18T03:14:38;102601.56;;;-5.34;100.00
27014;BME280;14556;52.222;4.510;2022-12-18T03:17:10;102614.66;;;-5.35;100.00
27014;BME280;14556;52.222;4.510;2022-12-18T03:19:40;102594.13;;;-5.46;100.00
27014;BME280;14556;52.222;4.510;2022-12-18T03:22:09;102603.81;;;-5.50;100.00
27014;BME280;14556;52.222;4.510;2022-12-18T03:24:36;102596.19;;;-5.56;100.00
27014;BME280;14556;52.222;4.510;2022-12-18T03:27:11;102604.69;;;-5.49;100.00
27014;BME280;14556;52.222;4.510;2022-12-18T03:29:43;102604.69;;;-5.49;100.00
27014;BME280;14556;52.222;4.510;2022-12-18T03:32:17;102600.38;;;-5.50;100.00
27014;BME280;14556;52.222;4.510;2022-12-18T03:34:47;102598.81;;;-5.56;100.00
27014;BME280;14556;52.222;4.510;2022-12-18T03:37:15;102594.56;;;-5.60;100.00
27014;BME280;14556;52.222;4.510;2022-12-18T03:39:41;102594.94;;;-5.71;100.00
27014;BME280;14556;52.222;4.510;2022-12-18T03:42:32;102585.34;;;-5.71;100.00
27014;BME280;14556;52.222;4.510;2022-12-18T03:47:53;102577.88;;;-5.82;100.00
27014;BME280;14556;52.222;4.510;2022-12-18T03:50:27;102573.44;;;-5.79;100.00
27014;BME280;14556;52.222;4.510;2022-12-18T03:53:08;102571.47;;;-5.71;100.00
27014;BME280;14556;52.222;4.510;2022-12-18T03:55:38;102567.09;;;-5.71;100.00
27014;BME280;14556;52.222;4.510;2022-12-18T03:58:07;102580.75;;;-5.62;100.00
27014;BME280;14556;52.222;4.510;2022-12-18T04:00:35;102574.78;;;-5.66;100.00
27014;BME280;14556;52.222;4.510;2022-12-18T04:03:03;102580.72;;;-5.61;100.00
27014;BME280;14556;52.222;4.510;2022-12-18T04:05:32;102586.25;;;-5.72;100.00
27014;BME280;14556;52.222;4.510;2022-12-18T04:08:00;102576.03;;;-5.78;100.00
27014;BME280;14556;52.222;4.510;2022-12-18T04:10:27;102582.34;;;-5.85;100.00
27014;BME280;14556;52.222;4.510;2022-12-18T04:12:57;102583.41;;;-5.92;100.00
27014;BME280;14556;52.222;4.510;2022-12-18T04:15:24;102582.56;;;-5.93;100.00
27014;BME280;14556;52.222;4.510;2022-12-18T04:17:51;102586.06;;;-5.94;100.00
27014;BME280;14556;52.222;4.510;2022-12-18T04:20:18;102591.19;;;-5.91;100.00
27014;BME280;14556;52.222;4.510;2022-12-18T04:22:45;102589.41;;;-5.89;100.00
27014;BME280;14556;52.222;4.510;2022-12-18T04:25:12;102586.78;;;-5.89;100.00
27014;BME280;14556;52.222;4.510;2022-12-18T04:27:38;102587.50;;;-5.84;100.00
27014;BME280;14556;52.222;4.510;2022-12-18T04:30:06;102588.47;;;-5.88;100.00
27014;BME280;14556;52.222;4.510;2022-12-18T04:32:33;102590.53;;;-5.98;100.00
27014;BME280;14556;52.222;4.510;2022-12-18T04:35:00;102586.53;;;-6.08;100.00
27014;BME280;14556;52.222;4.510;2022-12-18T04:37:27;102596.03;;;-6.07;100.00
27014;BME280;14556;52.222;4.510;2022-12-18T04:39:53;102602.97;;;-6.06;100.00
27014;BME280;14556;52.222;4.510;2022-12-18T04:42:19;102590.81;;;-6.07;100.00
27014;BME280;14556;52.222;4.510;2022-12-18T04:44:46;102584.38;;;-6.24;100.00
27014;BME280;14556;52.222;4.510;2022-12-18T04:47:12;102593.47;;;-6.09;100.00
27014;BME280;14556;52.222;4.510;2022-12-18T04:49:39;102594.16;;;-6.03;100.00
27014;BME280;14556;52.222;4.510;2022-12-18T04:52:07;102590.81;;;-6.07;100.00
27014;BME280;14556;52.222;4.510;2022-12-18T04:54:33;102591.03;;;-6.13;100.00
27014;BME280;14556;52.222;4.510;2022-12-18T04:57:00;102585.81;;;-6.13;100.00
27014;BME280;14556;52.222;4.510;2022-12-18T04:59:26;102573.84;;;-6.21;100.00
27014;BME280;14556;52.222;4.510;2022-12-18T05:01:53;102586.16;;;-6.26;100.00
27014;BME280;14556;52.222;4.510;2022-12-18T05:04:19;102586.47;;;-6.37;100.00
27014;BME280;14556;52.222;4.510;2022-12-18T05:06:46;102591.91;;;-6.45;100.00
27014;BME280;14556;52.222;4.510;2022-12-18T05:09:13;102592.69;;;-6.41;100.00
27014;BME280;14556;52.222;4.510;2022-12-18T05:11:39;102597.78;;;-6.38;100.00
27014;BME280;14556;52.222;4.510;2022-12-18T05:14:06;102601.31;;;-6.40;100.00
27014;BME280;14556;52.222;4.510;2022-12-18T05:16:32;102596.31;;;-6.47;100.00
27014;BME280;14556;52.222;4.510;2022-12-18T05:18:59;102593.91;;;-6.55;100.00
27014;BME280;14556;52.222;4.510;2022-12-18T05:21:25;102592.50;;;-6.67;100.00
27014;BME280;14556;52.222;4.510;2022-12-18T05:23:52;102584.81;;;-6.71;100.00
27014;BME280;14556;52.222;4.510;2022-12-18T05:26:18;102588.44;;;-6.77;100.00
27014;BME280;14556;52.222;4.510;2022-12-18T05:28:45;102586.78;;;-6.80;100.00
27014;BME280;14556;52.222;4.510;2022-12-18T05:31:12;102584.91;;;-6.74;100.00
27014;BME280;14556;52.222;4.510;2022-12-18T05:33:39;102595.78;;;-6.60;100.00
27014;BME280;14556;52.222;4.510;2022-12-18T05:36:07;102582.19;;;-6.70;100.00
27014;BME280;14556;52.222;4.510;2022-12-18T05:38:37;102577.88;;;-6.71;100.00
27014;BME280;14556;52.222;4.510;2022-12-18T05:41:04;102576.00;;;-6.65;100.00
27014;BME280;14556;52.222;4.510;2022-12-18T05:43:30;102563.84;;;-6.67;100.00
27014;BME280;14556;52.222;4.510;2022-12-18T05:45:57;102560.38;;;-6.65;100.00
27014;BME280;14556;52.222;4.510;2022-12-18T05:48:24;102552.09;;;-6.80;100.00
27014;BME280;14556;52.222;4.510;2022-12-18T05:50:50;102548.19;;;-6.97;100.00
27014;BME280;14556;52.222;4.510;2022-12-18T05:53:19;102569.72;;;-6.90;100.00
27014;BME280;14556;52.222;4.510;2022-12-18T05:55:47;102568.94;;;-6.94;100.00
27014;BME280;14556;52.222;4.510;2022-12-18T05:58:14;102569.72;;;-6.92;100.00
27014;BME280;14556;52.222;4.510;2022-12-18T06:00:42;102569.94;;;-6.99;100.00
27014;BME280;14556;52.222;4.510;2022-12-18T06:03:11;102550.22;;;-7.08;100.00
27014;BME280;14556;52.222;4.510;2022-12-18T06:05:40;102566.44;;;-6.98;100.00
27014;BME280;14556;52.222;4.510;2022-12-18T06:08:07;102564.66;;;-6.96;100.00
27014;BME280;14556;52.222;4.510;2022-12-18T06:10:33;102562.81;;;-6.93;100.00
27014;BME280;14556;52.222;4.510;2022-12-18T06:13:00;102552.41;;;-6.93;100.00
27014;BME280;14556;52.222;4.510;2022-12-18T06:15:27;102547.25;;;-6.94;100.00
27014;BME280;14556;52.222;4.510;2022-12-18T06:17:54;102541.09;;;-6.92;100.00
27014;BME280;14556;52.222;4.510;2022-12-18T06:20:21;102549.63;;;-6.86;100.00
27014;BME280;14556;52.222;4.510;2022-12-18T06:22:48;102543.25;;;-6.74;100.00
27014;BME280;14556;52.222;4.510;2022-12-18T06:25:15;102538.13;;;-6.77;100.00
27014;BME280;14556;52.222;4.510;2022-12-18T06:27:41;102530.44;;;-6.82;100.00
27014;BME280;14556;52.222;4.510;2022-12-18T06:30:10;102528.66;;;-6.80;100.00
27014;BME280;14556;52.222;4.510;2022-12-18T06:32:37;102534.84;;;-6.84;100.00
27014;BME280;14556;52.222;4.510;2022-12-18T06:35:04;102513.47;;;-6.96;100.00
27014;BME280;14556;52.222;4.510;2022-12-18T06:37:31;102508.28;;;-6.96;100.00
27014;BME280;14556;52.222;4.510;2022-12-18T06:39:58;102509.16;;;-6.97;100.00
27014;BME280;14556;52.222;4.510;2022-12-18T06:42:25;102508.38;;;-6.99;100.00
27014;BME280;14556;52.222;4.510;2022-12-18T06:44:51;102499.78;;;-7.02;100.00
27014;BME280;14556;52.222;4.510;2022-12-18T06:47:18;102502.28;;;-6.99;100.00
27014;BME280;14556;52.222;4.510;2022-12-18T06:49:44;102499.84;;;-7.06;100.00
27014;BME280;14556;52.222;4.510;2022-12-18T06:52:11;102498.09;;;-7.05;100.00
27014;BME280;14556;52.222;4.510;2022-12-18T06:54:37;102494.53;;;-7.01;100.00
27014;BME280;14556;52.222;4.510;2022-12-18T06:57:04;102493.72;;;-7.03;100.00
27014;BME280;14556;52.222;4.510;2022-12-18T06:59:30;102492.03;;;-7.06;100.00
27014;BME280;14556;52.222;4.510;2022-12-18T07:01:56;102486.09;;;-7.09;100.00
27014;BME280;14556;52.222;4.510;2022-12-18T07:04:31;102482.50;;;-7.05;100.00
27014;BME280;14556;52.222;4.510;2022-12-18T07:06:57;102472.13;;;-7.07;100.00
27014;BME280;14556;52.222;4.510;2022-12-18T07:09:24;102467.06;;;-7.11;100.00
27014;BME280;14556;52.222;4.510;2022-12-18T07:11:52;102470.53;;;-7.12;100.00
27014;BME280;14556;52.222;4.510;2022-12-18T07:14:18;102468.00;;;-7.14;100.00
27014;BME280;14556;52.222;4.510;2022-12-18T07:16:45;102466.22;;;-7.12;100.00
27014;BME280;14556;52.222;4.510;2022-12-18T07:19:12;102456.56;;;-7.08;100.00
27014;BME280;14556;52.222;4.510;2022-12-18T07:21:38;102443.69;;;-7.13;100.00
27014;BME280;14556;52.222;4.510;2022-12-18T07:24:05;102438.56;;;-7.16;100.00
27014;BME280;14556;52.222;4.510;2022-12-18T07:26:32;102428.19;;;-7.18;100.00
27014;BME280;14556;52.222;4.510;2022-12-18T07:28:58;102416.97;;;-7.18;100.00
27014;BME280;14556;52.222;4.510;2022-12-18T07:31:25;102404.69;;;-7.13;100.00
27014;BME280;14556;52.222;4.510;2022-12-18T07:33:52;102400.34;;;-7.14;100.00
27014;BME280;14556;52.222;4.510;2022-12-18T07:36:19;102402.91;;;-7.12;100.00
27014;BME280;14556;52.222;4.510;2022-12-18T07:38:47;102405.50;;;-7.12;100.00
27014;BME280;14556;52.222;4.510;2022-12-18T07:41:14;102404.50;;;-7.07;100.00
27014;BME280;14556;52.222;4.510;2022-12-18T07:43:41;102413.16;;;-7.06;100.00
27014;BME280;14556;52.222;4.510;2022-12-18T07:46:09;102393.38;;;-7.12;100.00
27014;BME280;14556;52.222;4.510;2022-12-18T07:48:39;102406.19;;;-7.06;100.00
27014;BME280;14556;52.222;4.510;2022-12-18T07:51:07;102411.31;;;-7.02;100.00
27014;BME280;14556;52.222;4.510;2022-12-18T07:53:34;102421.69;;;-7.01;100.00
27014;BME280;14556;52.222;4.510;2022-12-18T07:56:07;102424.25;;;-6.99;100.00
27014;BME280;14556;52.222;4.510;2022-12-18T07:58:54;102424.34;;;-7.02;100.00
27014;BME280;14556;52.222;4.510;2022-12-18T08:01:20;102412.97;;;-7.00;100.00
27014;BME280;14556;52.222;4.510;2022-12-18T08:03:47;102416.19;;;-6.92;100.00
27014;BME280;14556;52.222;4.510;2022-12-18T08:06:17;102402.81;;;-7.08;100.00
27014;BME280;14556;52.222;4.510;2022-12-18T08:08:43;102422.41;;;-6.96;100.00
27014;BME280;14556;52.222;4.510;2022-12-18T08:11:10;102425.00;;;-6.96;100.00
27014;BME280;14556;52.222;4.510;2022-12-18T08:13:36;102423.06;;;-6.89;100.00
27014;BME280;14556;52.222;4.510;2022-12-18T08:16:06;102407.50;;;-6.90;100.00
27014;BME280;14556;52.222;4.510;2022-12-18T08:18:37;102408.38;;;-6.92;100.00
27014;BME280;14556;52.222;4.510;2022-12-18T08:21:15;102401.34;;;-6.88;100.00
27014;BME280;14556;52.222;4.510;2022-12-18T08:23:42;102384.84;;;-6.87;100.00
27014;BME280;14556;52.222;4.510;2022-12-18T08:26:10;102395.25;;;-6.87;100.00
27014;BME280;14556;52.222;4.510;2022-12-18T08:28:38;102405.34;;;-6.76;100.00
27014;BME280;14556;52.222;4.510;2022-12-18T08:31:05;102408.69;;;-6.71;100.00
27014;BME280;14556;52.222;4.510;2022-12-18T08:33:32;102412.97;;;-6.70;100.00
27014;BME280;14556;52.222;4.510;2022-12-18T08:36:00;102404.28;;;-6.70;100.00
27014;BME280;14556;52.222;4.510;2022-12-18T08:38:27;102418.06;;;-6.67;100.00
27014;BME280;14556;52.222;4.510;2022-12-18T08:41:01;102425.84;;;-6.65;100.00
27014;BME280;14556;52.222;4.510;2022-12-18T08:43:28;102428.34;;;-6.62;100.00
27014;BME280;14556;52.222;4.510;2022-12-18T08:46:15;102423.13;;;-6.60;100.00
27014;BME280;14556;52.222;4.510;2022-12-18T08:48:42;102428.22;;;-6.57;100.00
27014;BME280;14556;52.222;4.510;2022-12-18T08:51:09;102418.56;;;-6.53;100.00
27014;BME280;14556;52.222;4.510;2022-12-18T08:53:37;102420.25;;;-6.52;100.00
27014;BME280;14556;52.222;4.510;2022-12-18T08:56:04;102410.66;;;-6.50;100.00
27014;BME280;14556;52.222;4.510;2022-12-18T08:58:31;102427.84;;;-6.45;100.00
27014;BME280;14556;52.222;4.510;2022-12-18T09:01:02;102436.41;;;-6.41;100.00
27014;BME280;14556;52.222;4.510;2022-12-18T09:03:29;102439.84;;;-6.40;100.00
27014;BME280;14556;52.222;4.510;2022-12-18T09:05:56;102438.78;;;-6.33;100.00
27014;BME280;14556;52.222;4.510;2022-12-18T09:08:22;102431.72;;;-6.29;100.00
27014;BME280;14556;52.222;4.510;2022-12-18T09:10:50;102402.47;;;-6.38;100.00
27014;BME280;14556;52.222;4.510;2022-12-18T09:13:17;102421.06;;;-6.22;100.00
27014;BME280;14556;52.222;4.510;2022-12-18T09:15:47;102414.06;;;-6.21;100.00
27014;BME280;14556;52.222;4.510;2022-12-18T09:18:15;102414.13;;;-6.23;100.00
27014;BME280;14556;52.222;4.510;2022-12-18T09:20:42;102404.31;;;-6.14;100.00
27014;BME280;14556;52.222;4.510;2022-12-18T09:23:09;102395.00;;;-6.22;100.00
27014;BME280;14556;52.222;4.510;2022-12-18T09:25:36;102389.66;;;-6.17;100.00
27014;BME280;14556;52.222;4.510;2022-12-18T09:28:16;102389.59;;;-6.15;100.00
27014;BME280;14556;52.222;4.510;2022-12-18T09:30:46;102394.91;;;-6.19;100.00
27014;BME280;14556;52.222;4.510;2022-12-18T09:33:12;102399.09;;;-6.14;100.00
27014;BME280;14556;52.222;4.510;2022-12-18T09:35:41;102408.47;;;-6.09;100.00
27014;BME280;14556;52.222;4.510;2022-12-18T09:38:12;102406.84;;;-6.11;100.00
27014;BME280;14556;52.222;4.510;2022-12-18T09:40:48;102405.06;;;-6.11;100.00
27014;BME280;14556;52.222;4.510;2022-12-18T09:43:20;102392.72;;;-6.05;100.00
27014;BME280;14556;52.222;4.510;2022-12-18T09:45:55;102394.41;;;-6.04;100.00
27014;BME280;14556;52.222;4.510;2022-12-18T09:48:34;102383.09;;;-6.03;100.00
27014;BME280;14556;52.222;4.510;2022-12-18T09:51:12;102386.38;;;-5.98;100.00
27014;BME280;14556;52.222;4.510;2022-12-18T09:53:44;102383.59;;;-5.92;100.00
27014;BME280;14556;52.222;4.510;2022-12-18T09:56:18;102391.31;;;-5.89;100.00
27014;BME280;14556;52.222;4.510;2022-12-18T09:59:20;102392.06;;;-5.85;100.00
27014;BME280;14556;52.222;4.510;2022-12-18T10:01:47;102383.47;;;-5.89;100.00
27014;BME280;14556;52.222;4.510;2022-12-18T10:04:14;102384.31;;;-5.88;100.00
27014;BME280;14556;52.222;4.510;2022-12-18T10:06:55;102391.81;;;-5.79;100.00
27014;BME280;14556;52.222;4.510;2022-12-18T10:10:07;102386.50;;;-5.76;100.00
27014;BME280;14556;52.222;4.510;2022-12-18T10:15:40;102392.31;;;-5.67;100.00
27014;BME280;14556;52.222;4.510;2022-12-18T10:18:30;102385.31;;;-5.67;100.00
27014;BME280;14556;52.222;4.510;2022-12-18T10:21:47;102387.88;;;-5.65;100.00
27014;BME280;14556;52.222;4.510;2022-12-18T10:26:25;102373.72;;;-5.58;100.00
27014;BME280;14556;52.222;4.510;2022-12-18T10:28:53;102375.34;;;-5.54;100.00
27014;BME280;14556;52.222;4.510;2022-12-18T10:31:22;102361.38;;;-5.53;100.00
27014;BME280;14556;52.222;4.510;2022-12-18T10:33:50;102347.22;;;-5.46;100.00
27014;BME280;14556;52.222;4.510;2022-12-18T10:36:17;102347.22;;;-5.46;100.00
27014;BME280;14556;52.222;4.510;2022-12-18T10:38:43;102350.78;;;-5.48;100.00
27014;BME280;14556;52.222;4.510;2022-12-18T10:43:48;102343.59;;;-5.41;100.00
27014;BME280;14556;52.222;4.510;2022-12-18T10:46:17;102317.66;;;-5.46;100.00
27014;BME280;14556;52.222;4.510;2022-12-18T10:48:50;102341.38;;;-5.28;100.00
27014;BME280;14556;52.222;4.510;2022-12-18T10:51:29;102323.03;;;-5.27;100.00
27014;BME280;14556;52.222;4.510;2022-12-18T10:54:00;102336.66;;;-5.18;100.00
27014;BME280;14556;52.222;4.510;2022-12-18T10:56:30;102341.72;;;-5.14;100.00
27014;BME280;14556;52.222;4.510;2022-12-18T10:59:09;102343.31;;;-5.10;100.00
27014;BME280;14556;52.222;4.510;2022-12-18T11:04:21;102333.56;;;-5.06;100.00
27014;BME280;14556;52.222;4.510;2022-12-18T11:07:08;102336.19;;;-5.06;100.00
27014;BME280;14556;52.222;4.510;2022-12-18T11:09:39;102317.03;;;-5.05;100.00
27014;BME280;14556;52.222;4.510;2022-12-18T11:12:19;102321.19;;;-5.01;100.00
27014;BME280;14556;52.222;4.510;2022-12-18T11:14:51;102315.06;;;-5.00;100.00
27014;BME280;14556;52.222;4.510;2022-12-18T11:17:24;102320.84;;;-4.91;100.00
27014;BME280;14556;52.222;4.510;2022-12-18T11:20:14;102321.69;;;-4.91;100.00
27014;BME280;14556;52.222;4.510;2022-12-18T11:22:55;102310.22;;;-4.87;100.00
27014;BME280;14556;52.222;4.510;2022-12-18T11:25:22;102304.88;;;-4.83;100.00
27014;BME280;14556;52.222;4.510;2022-12-18T11:28:33;102280.94;;;-4.95;100.00
27014;BME280;14556;52.222;4.510;2022-12-18T11:33:51;102294.25;;;-4.79;100.00
27014;BME280;14556;52.222;4.510;2022-12-18T11:36:42;102283.53;;;-4.73;100.00
27014;BME280;14556;52.222;4.510;2022-12-18T11:39:15;102271.22;;;-4.69;100.00
27014;BME280;14556;52.222;4.510;2022-12-18T11:41:55;102265.16;;;-4.69;100.00
27014;BME280;14556;52.222;4.510;2022-12-18T11:44:42;102255.53;;;-4.69;100.00
27014;BME280;14556;52.222;4.510;2022-12-18T11:47:18;102256.41;;;-4.68;100.00
27014;BME280;14556;52.222;4.510;2022-12-18T11:49:49;102241.41;;;-4.63;100.00
27014;BME280;14556;52.222;4.510;2022-12-18T11:52:18;102232.59;;;-4.61;100.00
27014;BME280;14556;52.222;4.510;2022-12-18T11:54:51;102236.84;;;-4.58;100.00
27014;BME280;14556;52.222;4.510;2022-12-18T11:57:35;102232.19;;;-4.51;100.00
27014;BME280;14556;52.222;4.510;2022-12-18T12:00:18;102224.22;;;-4.48;100.00
27014;BME280;14556;52.222;4.510;2022-12-18T12:03:54;102226.00;;;-4.49;100.00
27014;BME280;14556;52.222;4.510;2022-12-18T12:16:33;102222.38;;;-4.25;100.00
27014;BME280;14556;52.222;4.510;2022-12-18T12:22:16;102208.28;;;-4.21;100.00
27014;BME280;14556;52.222;4.510;2022-12-18T12:25:14;102209.97;;;-4.20;100.00
27014;BME280;14556;52.222;4.510;2022-12-18T12:33:44;102189.63;;;-4.13;100.00
27014;BME280;14556;52.222;4.510;2022-12-18T12:39:12;102185.03;;;-4.08;100.00
27014;BME280;14556;52.222;4.510;2022-12-18T12:41:42;102181.66;;;-4.10;100.00
27014;BME280;14556;52.222;4.510;2022-12-18T12:44:33;102172.63;;;-4.03;100.00
27014;BME280;14556;52.222;4.510;2022-12-18T12:47:10;102172.50;;;-3.99;100.00
27014;BME280;14556;52.222;4.510;2022-12-18T12:49:38;102174.19;;;-3.98;100.00
27014;BME280;14556;52.222;4.510;2022-12-18T12:52:12;102163.72;;;-3.98;100.00
27014;BME280;14556;52.222;4.510;2022-12-18T12:54:40;102156.81;;;-3.99;100.00
27014;BME280;14556;52.222;4.510;2022-12-18T13:02:20;102153.97;;;-3.95;100.00
27014;BME280;14556;52.222;4.510;2022-12-18T13:04:58;102143.53;;;-3.95;100.00
27014;BME280;14556;52.222;4.510;2022-12-18T13:07:41;102148.41;;;-3.87;100.00
27014;BME280;14556;52.222;4.510;2022-12-18T13:13:34;102136.72;;;-3.80;100.00
27014;BME280;14556;52.222;4.510;2022-12-18T13:16:07;102129.72;;;-3.79;100.00
27014;BME280;14556;52.222;4.510;2022-12-18T13:18:34;102121.72;;;-3.76;100.00
27014;BME280;14556;52.222;4.510;2022-12-18T13:21:19;102127.81;;;-3.76;100.00
27014;BME280;14556;52.222;4.510;2022-12-18T13:23:47;102116.44;;;-3.74;100.00
27014;BME280;14556;52.222;4.510;2022-12-18T13:28:56;102103.34;;;-3.74;100.00
27014;BME280;14556;52.222;4.510;2022-12-18T13:34:23;102093.31;;;-3.65;100.00
27014;BME280;14556;52.222;4.510;2022-12-18T13:36:56;102082.78;;;-3.63;100.00
27014;BME280;14556;52.222;4.510;2022-12-18T13:39:31;102074.00;;;-3.62;100.00
27014;BME280;14556;52.222;4.510;2022-12-18T13:44:35;102070.25;;;-3.56;100.00
27014;BME280;14556;52.222;4.510;2022-12-18T13:47:28;102061.63;;;-3.58;100.00
27014;BME280;14556;52.222;4.510;2022-12-18T13:49:58;102058.91;;;-3.57;100.00
27014;BME280;14556;52.222;4.510;2022-12-18T13:52:28;102057.94;;;-3.54;100.00
27014;BME280;14556;52.222;4.510;2022-12-18T13:54:56;102057.78;;;-3.51;100.00
27014;BME280;14556;52.222;4.510;2022-12-18T13:57:28;102054.22;;;-3.50;100.00
27014;BME280;14556;52.222;4.510;2022-12-18T13:59:56;102048.09;;;-3.49;100.00
27014;BME280;14556;52.222;4.510;2022-12-18T14:02:27;102045.41;;;-3.47;100.00
27014;BME280;14556;52.222;4.510;2022-12-18T14:04:54;102050.53;;;-3.46;100.00
27014;BME280;14556;52.222;4.510;2022-12-18T14:07:24;102021.38;;;-3.56;100.00
27014;BME280;14556;52.222;4.510;2022-12-18T14:09:54;102054.72;;;-3.42;100.00
27014;BME280;14556;52.222;4.510;2022-12-18T14:12:46;102042.47;;;-3.41;100.00